Time,TemperatureF,DewpointF,PressureIn,WindDirection,WindDirectionDegrees,WindSpeedMPH,WindSpeedGustMPH,Humidity,HourlyPrecipIn,Conditions,Clouds,dailyrainin,SolarRadiationWatts/m^2,SoftwareType,DateUTC
2013-04-19 00:03:00,79.0,71.0,-100.00,SE,129,8.0,18.0,77,0.00,,,0.00,0.000000,,2013-04-19 04:03:00,
2013-04-19 00:13:00,79.0,71.0,-100.00,SE,129,8.0,18.0,77,0.00,,,0.00,0.000000,,2013-04-19 04:13:00,
2013-04-19 00:23:00,79.0,71.0,-100.00,SE,129,8.0,18.0,77,0.00,,,0.00,0.000000,,2013-04-19 04:23:00,
2013-04-19 00:33:00,79.0,71.0,-100.00,SE,129,8.0,18.0,77,0.00,,,0.00,0.000000,,2013-04-19 04:33:00,
2013-04-19 01:03:00,79.0,71.0,-100.00,SE,130,10.0,21.0,76,0.00,,,0.00,0.000000,,2013-04-19 05:03:00,
2013-04-19 01:12:00,79.0,71.0,-100.00,SE,130,10.0,21.0,76,0.00,,,0.00,0.000000,,2013-04-19 05:12:00,
2013-04-19 01:22:00,79.0,71.0,-100.00,SE,130,10.0,21.0,76,0.00,,,0.00,0.000000,,2013-04-19 05:22:00,
2013-04-19 01:32:00,79.0,71.0,-100.00,SE,130,10.0,21.0,76,0.00,,,0.00,0.000000,,2013-04-19 05:32:00,
2013-04-19 02:02:00,79.0,70.0,-100.00,SE,140,8.0,18.0,74,0.00,,,0.00,0.000000,,2013-04-19 06:02:00,
2013-04-19 02:12:00,79.0,70.0,-100.00,SE,140,8.0,18.0,74,0.00,,,0.00,0.000000,,2013-04-19 06:12:00,
2013-04-19 02:22:00,79.0,70.0,-100.00,SE,140,8.0,18.0,74,0.00,,,0.00,0.000000,,2013-04-19 06:22:00,
2013-04-19 02:32:00,79.0,70.0,-100.00,SE,140,8.0,18.0,74,0.00,,,0.00,0.000000,,2013-04-19 06:32:00,
2013-04-19 03:02:00,79.0,71.0,-100.00,SSE,147,8.0,18.0,76,0.00,,,0.00,0.000000,,2013-04-19 07:02:00,
2013-04-19 03:12:00,79.0,71.0,-100.00,SSE,147,8.0,18.0,76,0.00,,,0.00,0.000000,,2013-04-19 07:12:00,
2013-04-19 03:21:00,79.0,71.0,-100.00,SSE,147,8.0,18.0,76,0.00,,,0.00,0.000000,,2013-04-19 07:21:00,
2013-04-19 03:32:00,79.0,71.0,-100.00,SSE,147,8.0,18.0,76,0.00,,,0.00,0.000000,,2013-04-19 07:32:00,
2013-04-19 04:02:00,79.0,70.0,-100.00,SSE,158,9.0,17.0,75,0.00,,,0.00,0.000000,,2013-04-19 08:02:00,
2013-04-19 04:12:00,79.0,70.0,-100.00,SSE,158,9.0,17.0,75,0.00,,,0.00,0.000000,,2013-04-19 08:12:00,
2013-04-19 04:22:00,79.0,70.0,-100.00,SSE,158,9.0,17.0,75,0.00,,,0.00,0.000000,,2013-04-19 08:22:00,
2013-04-19 04:33:00,79.0,70.0,-100.00,SSE,158,9.0,17.0,75,0.00,,,0.00,0.000000,,2013-04-19 08:33:00,
2013-04-19 05:01:00,79.0,71.0,-100.00,SSE,157,6.0,16.0,77,0.00,,,0.00,0.000000,,2013-04-19 09:01:00,
2013-04-19 05:12:00,79.0,71.0,-100.00,SSE,157,6.0,16.0,77,0.00,,,0.00,0.000000,,2013-04-19 09:12:00,
2013-04-19 05:21:00,79.0,71.0,-100.00,SSE,157,6.0,16.0,77,0.00,,,0.00,0.000000,,2013-04-19 09:21:00,
2013-04-19 05:32:00,79.0,71.0,-100.00,SSE,157,6.0,16.0,77,0.00,,,0.00,0.000000,,2013-04-19 09:32:00,
2013-04-19 06:02:00,79.0,70.0,-100.00,SSE,157,8.0,17.0,75,0.00,,,0.00,0.000000,,2013-04-19 10:02:00,
2013-04-19 06:13:00,79.0,70.0,-100.00,SSE,157,8.0,17.0,75,0.00,,,0.00,0.000000,,2013-04-19 10:13:00,
2013-04-19 06:23:00,79.0,70.0,-100.00,SSE,157,8.0,17.0,75,0.00,,,0.00,0.000000,,2013-04-19 10:23:00,
2013-04-19 06:33:00,79.0,70.0,-100.00,SSE,157,8.0,17.0,75,0.00,,,0.00,0.000000,,2013-04-19 10:33:00,
2013-04-19 07:03:00,78.0,70.0,-100.00,SSE,156,7.0,15.0,77,0.00,,,0.00,0.000000,,2013-04-19 11:03:00,
2013-04-19 07:11:00,78.0,70.0,-100.00,SSE,156,7.0,15.0,77,0.00,,,0.00,0.000000,,2013-04-19 11:11:00,
2013-04-19 07:22:00,78.0,70.0,-100.00,SSE,156,7.0,15.0,77,0.00,,,0.00,0.000000,,2013-04-19 11:22:00,
2013-04-19 07:32:00,78.0,70.0,-100.00,SSE,156,7.0,15.0,77,0.00,,,0.00,0.000000,,2013-04-19 11:32:00,
2013-04-19 08:03:00,79.0,70.0,-100.00,SSE,155,8.0,14.0,75,0.00,,,0.00,19.000000,,2013-04-19 12:03:00,
2013-04-19 08:12:00,79.0,70.0,-100.00,SSE,155,8.0,14.0,75,0.00,,,0.00,19.000000,,2013-04-19 12:12:00,
2013-04-19 08:22:00,79.0,70.0,-100.00,SSE,155,8.0,14.0,75,0.00,,,0.00,19.000000,,2013-04-19 12:22:00,
2013-04-19 08:32:00,79.0,70.0,-100.00,SSE,155,8.0,14.0,75,0.00,,,0.00,19.000000,,2013-04-19 12:32:00,
2013-04-19 09:02:00,81.0,71.0,-100.00,SSE,156,7.0,17.0,72,0.00,,,0.00,152.000000,,2013-04-19 13:02:00,
2013-04-19 09:11:00,81.0,71.0,-100.00,SSE,156,7.0,17.0,72,0.00,,,0.00,152.000000,,2013-04-19 13:11:00,
2013-04-19 09:22:00,81.0,71.0,-100.00,SSE,156,7.0,17.0,72,0.00,,,0.00,152.000000,,2013-04-19 13:22:00,
2013-04-19 09:32:00,81.0,71.0,-100.00,SSE,156,7.0,17.0,72,0.00,,,0.00,152.000000,,2013-04-19 13:32:00,
2013-04-19 10:02:00,85.0,72.0,-100.00,SSE,162,9.0,17.0,65,0.00,,,0.00,390.000000,,2013-04-19 14:02:00,
2013-04-19 10:11:00,85.0,72.0,-100.00,SSE,162,9.0,17.0,65,0.00,,,0.00,390.000000,,2013-04-19 14:11:00,
2013-04-19 10:22:00,85.0,72.0,-100.00,SSE,162,9.0,17.0,65,0.00,,,0.00,390.000000,,2013-04-19 14:22:00,
2013-04-19 10:32:00,85.0,72.0,-100.00,SSE,162,9.0,17.0,65,0.00,,,0.00,390.000000,,2013-04-19 14:32:00,
2013-04-19 11:02:00,87.0,72.0,-100.00,SE,142,8.0,19.0,61,0.00,,,0.00,631.000000,,2013-04-19 15:02:00,
2013-04-19 11:12:00,87.0,72.0,-100.00,SE,142,8.0,19.0,61,0.00,,,0.00,631.000000,,2013-04-19 15:12:00,
2013-04-19 11:22:00,87.0,72.0,-100.00,SE,142,8.0,19.0,61,0.00,,,0.00,631.000000,,2013-04-19 15:22:00,
2013-04-19 11:33:00,87.0,72.0,-100.00,SE,142,8.0,19.0,61,0.00,,,0.00,631.000000,,2013-04-19 15:33:00,
2013-04-19 12:03:00,86.0,72.0,-100.00,SE,138,9.0,16.0,63,0.00,,,0.00,773.000000,,2013-04-19 16:03:00,
2013-04-19 12:13:00,86.0,72.0,-100.00,SE,138,9.0,16.0,63,0.00,,,0.00,773.000000,,2013-04-19 16:13:00,
2013-04-19 12:23:00,86.0,72.0,-100.00,SE,138,9.0,16.0,63,0.00,,,0.00,773.000000,,2013-04-19 16:23:00,
2013-04-19 12:33:00,86.0,72.0,-100.00,SE,138,9.0,16.0,63,0.00,,,0.00,773.000000,,2013-04-19 16:33:00,
2013-04-19 13:02:00,87.0,72.0,-100.00,SE,128,8.0,16.0,61,0.00,,,0.00,862.000000,,2013-04-19 17:02:00,
2013-04-19 13:12:00,87.0,72.0,-100.00,SE,128,8.0,16.0,61,0.00,,,0.00,862.000000,,2013-04-19 17:12:00,
2013-04-19 13:22:00,87.0,72.0,-100.00,SE,128,8.0,16.0,61,0.00,,,0.00,862.000000,,2013-04-19 17:22:00,
2013-04-19 13:33:00,87.0,72.0,-100.00,SE,128,8.0,16.0,61,0.00,,,0.00,862.000000,,2013-04-19 17:33:00,
2013-04-19 14:02:00,87.0,72.0,-100.00,SSE,147,9.0,18.0,61,0.00,,,0.00,903.000000,,2013-04-19 18:02:00,
2013-04-19 14:13:00,87.0,72.0,-100.00,SSE,147,9.0,18.0,61,0.00,,,0.00,903.000000,,2013-04-19 18:13:00,
2013-04-19 14:23:00,87.0,72.0,-100.00,SSE,147,9.0,18.0,61,0.00,,,0.00,903.000000,,2013-04-19 18:23:00,
2013-04-19 14:33:00,87.0,72.0,-100.00,SSE,147,9.0,18.0,61,0.00,,,0.00,903.000000,,2013-04-19 18:33:00,
2013-04-19 15:02:00,87.0,72.0,-100.00,SE,144,8.0,18.0,61,0.00,,,0.00,894.000000,,2013-04-19 19:02:00,
2013-04-19 15:11:00,87.0,72.0,-100.00,SE,144,8.0,18.0,61,0.00,,,0.00,894.000000,,2013-04-19 19:11:00,
2013-04-19 15:21:00,87.0,72.0,-100.00,SE,144,8.0,18.0,61,0.00,,,0.00,894.000000,,2013-04-19 19:21:00,
2013-04-19 15:32:00,87.0,72.0,-100.00,SE,144,8.0,18.0,61,0.00,,,0.00,894.000000,,2013-04-19 19:32:00,
2013-04-19 16:02:00,85.0,72.0,-100.00,SE,131,7.0,17.0,66,0.00,,,0.00,632.000000,,2013-04-19 20:02:00,
2013-04-19 16:11:00,85.0,72.0,-100.00,SE,131,7.0,17.0,66,0.00,,,0.00,632.000000,,2013-04-19 20:11:00,
2013-04-19 16:22:00,85.0,72.0,-100.00,SE,131,7.0,17.0,66,0.00,,,0.00,632.000000,,2013-04-19 20:22:00,
2013-04-19 16:32:00,85.0,72.0,-100.00,SE,131,7.0,17.0,66,0.00,,,0.00,632.000000,,2013-04-19 20:32:00,
2013-04-19 17:01:00,87.0,72.0,-100.00,SE,131,9.0,19.0,62,0.00,,,0.00,599.000000,,2013-04-19 21:01:00,
2013-04-19 17:12:00,87.0,72.0,-100.00,SE,131,9.0,19.0,62,0.00,,,0.00,599.000000,,2013-04-19 21:12:00,
2013-04-19 17:21:00,87.0,72.0,-100.00,SE,131,9.0,19.0,62,0.00,,,0.00,599.000000,,2013-04-19 21:21:00,
2013-04-19 17:32:00,87.0,72.0,-100.00,SE,131,9.0,19.0,62,0.00,,,0.00,599.000000,,2013-04-19 21:32:00,
2013-04-19 18:02:00,86.0,71.0,-100.00,SE,137,8.0,18.0,62,0.00,,,0.00,426.000000,,2013-04-19 22:02:00,
2013-04-19 18:12:00,86.0,71.0,-100.00,SE,137,8.0,18.0,62,0.00,,,0.00,426.000000,,2013-04-19 22:12:00,
2013-04-19 18:23:00,86.0,71.0,-100.00,SE,137,8.0,18.0,62,0.00,,,0.00,426.000000,,2013-04-19 22:23:00,
2013-04-19 18:33:00,86.0,71.0,-100.00,SE,137,8.0,18.0,62,0.00,,,0.00,426.000000,,2013-04-19 22:33:00,
2013-04-19 19:03:00,84.0,72.0,-100.00,ESE,112,6.0,15.0,67,0.00,,,0.00,286.000000,,2013-04-19 23:03:00,
2013-04-19 19:11:00,84.0,72.0,-100.00,ESE,112,6.0,15.0,67,0.00,,,0.00,286.000000,,2013-04-19 23:11:00,
2013-04-19 19:22:00,84.0,72.0,-100.00,ESE,112,6.0,15.0,67,0.00,,,0.00,286.000000,,2013-04-19 23:22:00,
2013-04-19 19:32:00,84.0,72.0,-100.00,ESE,112,6.0,15.0,67,0.00,,,0.00,286.000000,,2013-04-19 23:32:00,
2013-04-19 20:02:00,81.0,73.0,-100.00,ESE,120,6.0,13.0,76,0.00,,,0.00,65.000000,,2013-04-20 00:02:00,
2013-04-19 20:12:00,81.0,73.0,-100.00,ESE,120,6.0,13.0,76,0.00,,,0.00,65.000000,,2013-04-20 00:12:00,
2013-04-19 20:22:00,81.0,73.0,-100.00,ESE,120,6.0,13.0,76,0.00,,,0.00,65.000000,,2013-04-20 00:22:00,
2013-04-19 20:32:00,81.0,73.0,-100.00,ESE,120,6.0,13.0,76,0.00,,,0.00,65.000000,,2013-04-20 00:32:00,
2013-04-19 21:02:00,80.0,73.0,-100.00,SE,133,5.0,12.0,78,0.00,,,0.00,3.000000,,2013-04-20 01:02:00,
2013-04-19 21:11:00,80.0,73.0,-100.00,SE,133,5.0,12.0,78,0.00,,,0.00,3.000000,,2013-04-20 01:11:00,
2013-04-19 21:21:00,80.0,73.0,-100.00,SE,133,5.0,12.0,78,0.00,,,0.00,3.000000,,2013-04-20 01:21:00,
2013-04-19 21:32:00,80.0,73.0,-100.00,SE,133,5.0,12.0,78,0.00,,,0.00,3.000000,,2013-04-20 01:32:00,
2013-04-19 22:02:00,80.0,73.0,-100.00,SE,144,6.0,13.0,79,0.00,,,0.00,0.000000,,2013-04-20 02:02:00,
2013-04-19 22:11:00,80.0,73.0,-100.00,SE,144,6.0,13.0,79,0.00,,,0.00,0.000000,,2013-04-20 02:11:00,
2013-04-19 22:22:00,80.0,73.0,-100.00,SE,144,6.0,13.0,79,0.00,,,0.00,0.000000,,2013-04-20 02:22:00,
2013-04-19 22:32:00,80.0,73.0,-100.00,SE,144,6.0,13.0,79,0.00,,,0.00,0.000000,,2013-04-20 02:32:00,
2013-04-19 23:01:00,80.0,74.0,-100.00,SSE,156,7.0,12.0,81,0.00,,,0.00,0.000000,,2013-04-20 03:01:00,
2013-04-19 23:11:00,80.0,74.0,-100.00,SSE,156,7.0,12.0,81,0.00,,,0.00,0.000000,,2013-04-20 03:11:00,
2013-04-19 23:21:00,80.0,74.0,-100.00,SSE,156,7.0,12.0,81,0.00,,,0.00,0.000000,,2013-04-20 03:21:00,
2013-04-19 23:33:00,80.0,74.0,-100.00,SSE,156,7.0,12.0,81,0.00,,,0.00,0.000000,,2013-04-20 03:33:00,